Mariposa, CA (95338)

6:13 AM PDT on October 01, 2014 (GMT -0700)
Mariposa Fairgrounds | Change Station
CLOSE
Current Station
Personal Weather Station
Location: Mariposa, CA
Elevation: 1851 ft
Nearby Weather Stations

Elev 1851 ft 37.47 °N, 119.95 °W | Updated 36 seconds ago

Clear
Clear
54.1 °F
Feels Like 54.1 °F
N
0.0
Wind Variable Wind from ESE
Gusts 0.0 mph

Today
High -- | Low -- °F
--% Chance of Precip.
Yesterday
High -- | Low -- °F
Precip. -- in
6:55 AM 6:42 PM
Waxing Crescent, 47% visible
Pressure 29.85 in
Visibility 10.0 miles
Clouds Clear
Dew Point 50 °F
Humidity 85%
Rainfall 0.00 in
Snow Depth 0 in , 1 in , 0 in
UV 0 out of 12
Pollen 5.40 out of 12
Air Quality Not available.
Flu Activity Not available.
METAR KO22 011235Z AUTO 02004KT 10SM CLR 14/03 A2985 RMK AO1

More Conditions Fewer Conditions

Pressure 29.85 in
Visibility 10.0 miles
Clouds Clear
Dew Point 50 °F
Humidity 85%
Rainfall 0.00 in
Snow Depth 0 in , 1 in , 0 in
UV 0 out of 12
Pollen 5.40 out of 12
Air Quality Not available.
Flu Activity Not available.
METAR KO22 011235Z AUTO 02004KT 10SM CLR 14/03 A2985 RMK AO1

More Conditions Fewer Conditions

10-Day Weather Forecast

Almanac

Astronomy

Oct. 01, 2014 Rise Set
Actual Time 6:55 AM PDT 6:42 PM PDT
Civil Twilight 6:29 AM PDT 7:08 PM PDT
Nautical Twilight 5:58 AM PDT 7:38 PM PDT
Astronomical Twilight 5:28 AM PDT 8:09 PM PDT
Moon 1:55 PM PDT No Moon Set
Length of Visible Light 12h 39m
Length of Day
11h 47m
Tomorrow will be 2m 23s shorter.
Waxing Crescent, 47% of the Moon is Illuminated
Today
Waxing Crescent
Oct 1
First Quarter
Oct 8
Full
Oct 15
Last Quarter
Oct 23
New

Today's Extremes

State Highs State Lows

Community

WunderPhotos

Upload Photos

1,757,925 photos uploaded!

Nearby

Snow Depth

Station Depth Elevation
Independence Creek 0 in 6500 ft
Echo Peak 1 in 7800 ft
Sonora Pass 0 in 8800 ft
Rubicon #2 1 in 7500 ft
Burnside Lake 1 in 8139 ft

Earthquake Activity

City Distance Mag. Time & Date
Shandon, California 119 miles 2.9 5:34 PM PDT
2014-09-30
East Foothills, California 102 miles 2.6 3:34 PM PDT
2014-09-30
South Dos Palos, California 78 miles 2.7 3:08 PM PDT
2014-09-30
South Dos Palos, California 77 miles 2.5 9:18 PM PDT
2014-09-29
Minimum magnitude displayed is 2.5.

Coastal Water Temperatures

Place Temperature
No Stations Reporting

Nearby Weather Stations